地図

経路データ

SID SEASON NUMBER BASIN SUBBASIN NAME ISO_TIME NATURE LAT LON WMO_WIND WMO_PRES WMO_AGENCY TRACK_TYPE DIST2LAND LANDFALL IFLAG USA_AGENCY USA_ATCF_ID USA_LAT USA_LON USA_RECORD USA_STATUS USA_WIND USA_PRES USA_SSHS USA_R34_NE USA_R34_SE USA_R34_SW USA_R34_NW USA_R50_NE USA_R50_SE USA_R50_SW USA_R50_NW USA_R64_NE USA_R64_SE USA_R64_SW USA_R64_NW USA_POCI USA_ROCI USA_RMW USA_EYE TOKYO_LAT TOKYO_LON TOKYO_GRADE TOKYO_WIND TOKYO_PRES TOKYO_R50_DIR TOKYO_R50_LONG TOKYO_R50_SHORT TOKYO_R30_DIR TOKYO_R30_LONG TOKYO_R30_SHORT TOKYO_LAND CMA_LAT CMA_LON CMA_CAT CMA_WIND CMA_PRES HKO_LAT HKO_LON HKO_CAT HKO_WIND HKO_PRES NEWDELHI_LAT NEWDELHI_LON NEWDELHI_GRADE NEWDELHI_WIND NEWDELHI_PRES NEWDELHI_CI NEWDELHI_DP NEWDELHI_POCI REUNION_LAT REUNION_LON REUNION_TYPE REUNION_WIND REUNION_PRES REUNION_TNUM REUNION_CI REUNION_RMW REUNION_R34_NE REUNION_R34_SE REUNION_R34_SW REUNION_R34_NW REUNION_R50_NE REUNION_R50_SE REUNION_R50_SW REUNION_R50_NW REUNION_R64_NE REUNION_R64_SE REUNION_R64_SW REUNION_R64_NW BOM_LAT BOM_LON BOM_TYPE BOM_WIND BOM_PRES BOM_TNUM BOM_CI BOM_RMW BOM_R34_NE BOM_R34_SE BOM_R34_SW BOM_R34_NW BOM_R50_NE BOM_R50_SE BOM_R50_SW BOM_R50_NW BOM_R64_NE BOM_R64_SE BOM_R64_SW BOM_R64_NW BOM_ROCI BOM_POCI BOM_EYE BOM_POS_METHOD BOM_PRES_METHOD NADI_LAT NADI_LON NADI_CAT NADI_WIND NADI_PRES WELLINGTON_LAT WELLINGTON_LON WELLINGTON_WIND WELLINGTON_PRES DS824_LAT DS824_LON DS824_STAGE DS824_WIND DS824_PRES TD9636_LAT TD9636_LON TD9636_STAGE TD9636_WIND TD9636_PRES TD9635_LAT TD9635_LON TD9635_WIND TD9635_PRES TD9635_ROCI NEUMANN_LAT NEUMANN_LON NEUMANN_CLASS NEUMANN_WIND NEUMANN_PRES MLC_LAT MLC_LON MLC_CLASS MLC_WIND MLC_PRES USA_GUST BOM_GUST BOM_GUST_PER REUNION_GUST REUNION_GUST_PER USA_SEAHGT USA_SEARAD_NE USA_SEARAD_SE USA_SEARAD_SW USA_SEARAD_NW STORM_SPEED STORM_DIR
1948349S06069 1949 93 SI MM NOT_NAMED 1948-12-14 06:00:00 TS -6.30000 68.7000 main 1874 1874 O________OO___ jtwc_sh SH041949 -6.30000 68.7000 -1 -6.30000 68.7000 TC 25 -6.30000 68.7000 7 3 251
1948349S06069 1949 93 SI MM NOT_NAMED 1948-12-14 09:00:00 TS -6.35146 68.5536 main 1890 1890 P________PP___ SH041949 -6.36000 68.5600 -1 -6.36000 68.5600 TC 25 -6.33438 68.5407 7 3 254
1948349S06069 1949 93 SI MM NOT_NAMED 1948-12-14 12:00:00 TS -6.38833 68.3917 main 1901 1901 O________OP___ jtwc_sh SH041949 -6.40000 68.4000 -1 -6.40000 68.4000 TC 25 -6.36500 68.3750 7 4 262
1948349S06069 1949 93 SI MM NOT_NAMED 1948-12-14 15:00:00 TS -6.40104 68.2040 main 1907 1894 P________PP___ SH041949 -6.40750 68.2075 -1 -6.40750 68.2075 TC 30 -6.38812 68.1969 7 4 268
1948349S06069 1949 93 SI MM NOT_NAMED 1948-12-14 18:00:00 TS -6.40000 68.0000 main 1894 1882 O________OO___ jtwc_sh SH041949 -6.40000 68.0000 -1 -6.40000 68.0000 TC 35 -6.40000 68.0000 2 4 270
1948349S06069 1949 93 SI MM NOT_NAMED 1948-12-14 21:00:00 TS -6.39968 67.7987 main 1882 1869 P________PP___ SH041949 -6.39998 67.8075 -1 -6.39998 67.8075 TC 35 -6.39908 67.7812 2 4 270
1948349S06069 1949 93 SI MM NOT_NAMED 1948-12-15 00:00:00 TS -6.39751 67.5833 main 1869 1851 O________OP___ jtwc_sh SH041949 -6.40000 67.6000 -1 -6.40000 67.6000 TC 35 -6.39253 67.5499 2 5 271
1948349S06069 1949 93 SI MM NOT_NAMED 1948-12-15 03:00:00 TS -6.39158 67.3346 main 1851 1839 P________PP___ SH041949 -6.39252 67.3425 -1 -6.39252 67.3425 TC 35 -6.38971 67.3187 2 5 270
1948349S06069 1949 93 SI MM NOT_NAMED 1948-12-15 06:00:00 TS -6.40000 67.1000 main 1839 1827 O________OO___ jtwc_sh SH041949 -6.40000 67.1000 -1 -6.40000 67.1000 TC 35 -6.40000 67.1000 2 4 263
1948349S06069 1949 93 SI MM NOT_NAMED 1948-12-15 09:00:00 TS -6.44152 66.9359 main 1827 1812 P________PP___ SH041949 -6.44247 66.9425 -1 -6.44247 66.9425 TC 35 -6.43961 66.9228 2 3 253
1948349S06069 1949 93 SI MM NOT_NAMED 1948-12-15 12:00:00 TS -6.49746 66.7858 main 1812 1800 O________OP___ jtwc_sh SH041949 -6.50000 66.8000 -1 -6.50000 66.8000 TC 35 -6.49239 66.7575 2 3 252
1948349S06069 1949 93 SI MM NOT_NAMED 1948-12-15 15:00:00 TS -6.54965 66.6061 main 1800 1779 P________PP___ SH041949 -6.54999 66.6150 -1 -6.54999 66.6150 TC 35 -6.54898 66.5884 2 4 255
1948349S06069 1949 93 SI MM NOT_NAMED 1948-12-15 18:00:00 TS -6.60000 66.4000 main 1779 1768 O________OO___ jtwc_sh SH041949 -6.60000 66.4000 -1 -6.60000 66.4000 TC 35 -6.60000 66.4000 2 5 257
1948349S06069 1949 93 SI MM NOT_NAMED 1948-12-15 21:00:00 TS -6.65178 66.1595 main 1758 1741 P________PP___ SH041949 -6.65750 66.1575 -1 -6.65750 66.1575 TC 35 -6.64035 66.1635 2 5 260
1948349S06069 1949 93 SI MM NOT_NAMED 1948-12-16 00:00:00 TS -6.69085 65.9025 main 1741 1730 O________OP___ jtwc_sh SH041949 -6.70000 65.9000 -1 -6.70000 65.9000 TC 35 -6.67255 65.9075 2 5 264
1948349S06069 1949 93 SI MM NOT_NAMED 1948-12-16 03:00:00 TS -6.70282 65.6443 main 1725 1715 P________PP___ SH041949 -6.70750 65.6425 -1 -6.70750 65.6425 TC 35 -6.69347 65.6478 2 5 269
1948349S06069 1949 93 SI MM NOT_NAMED 1948-12-16 06:00:00 TS -6.70000 65.4000 main 1715 1704 O________OO___ jtwc_sh SH041949 -6.70000 65.4000 -1 -6.70000 65.4000 TC 35 -6.70000 65.4000 2 4 271
1948349S06069 1949 93 SI MM NOT_NAMED 1948-12-16 09:00:00 TS -6.69736 65.1929 main 1704 1694 P________PP___ SH041949 -6.70748 65.1925 -1 -6.70748 65.1925 TC 35 -6.67711 65.1937 2 4 273
1948349S06069 1949 93 SI MM NOT_NAMED 1948-12-16 12:00:00 TS -6.68080 65.0000 main 1694 1689 O________OP___ jtwc_sh SH041949 -6.70000 65.0000 -1 -6.70000 65.0000 TC 35 -6.64239 64.9999 2 4 280
1948349S06069 1949 93 SI MM NOT_NAMED 1948-12-16 15:00:00 TS -6.63215 64.8070 main 1694 1685 P________PP___ SH041949 -6.64248 64.8075 -1 -6.64248 64.8075 TC 35 -6.61148 64.8062 2 4 281
1948349S06069 1949 93 SI MM NOT_NAMED 1948-12-16 18:00:00 TS -6.60000 64.6000 main 1685 1675 O________OO___ jtwc_sh SH041949 -6.60000 64.6000 -1 -6.60000 64.6000 TC 35 -6.60000 64.6000 2 4 270
1948349S06069 1949 93 SI MM NOT_NAMED 1948-12-16 21:00:00 TS -6.63553 64.3571 main 1675 1651 P________PP___ SH041949 -6.63500 64.3575 -1 -6.63500 64.3575 TC 35 -6.63658 64.3563 2 5 259
1948349S06069 1949 93 SI MM NOT_NAMED 1948-12-17 00:00:00 TS -6.69751 64.1000 main 1651 1632 O________OP___ jtwc_sh SH041949 -6.70000 64.1000 -1 -6.70000 64.1000 TC 35 -6.69253 64.1001 2 5 257
1948349S06069 1949 93 SI MM NOT_NAMED 1948-12-17 03:00:00 TS -6.75574 63.8429 main 1628 1619 P________PP___ SH041949 -6.75750 63.8425 -1 -6.75750 63.8425 TC 35 -6.75221 63.8438 2 5 258
1948349S06069 1949 93 SI MM NOT_NAMED 1948-12-17 06:00:00 TS -6.80000 63.6000 main 1619 1611 O________OO___ jtwc_sh SH041949 -6.80000 63.6000 -1 -6.80000 63.6000 TC 35 -6.80000 63.6000 2 5 263
1948349S06069 1949 93 SI MM NOT_NAMED 1948-12-17 09:00:00 TS -6.80704 63.3929 main 1611 1602 P________PP___ SH041949 -6.80748 63.3925 -1 -6.80748 63.3925 TC 35 -6.80617 63.3937 2 4 270
1948349S06069 1949 93 SI MM NOT_NAMED 1948-12-17 12:00:00 TS -6.79996 63.2000 main 1602 1594 O________OP___ jtwc_sh SH041949 -6.80000 63.2000 -1 -6.80000 63.2000 TC 35 -6.79989 63.1999 2 4 272
1948349S06069 1949 93 SI MM NOT_NAMED 1948-12-17 15:00:00 TS -6.79288 63.0071 main 1594 1574 P________PP___ SH041949 -6.79248 63.0075 -1 -6.79248 63.0075 TC 35 -6.79367 63.0062 2 4 270
1948349S06069 1949 93 SI MM NOT_NAMED 1948-12-17 18:00:00 TS -6.80000 62.8000 main 1574 1555 O________OO___ jtwc_sh SH041949 -6.80000 62.8000 -1 -6.80000 62.8000 TC 35 -6.80000 62.8000 2 4 264
1948349S06069 1949 93 SI MM NOT_NAMED 1948-12-17 21:00:00 TS -6.84020 62.5598 main 1555 1520 P________PP___ SH041949 -6.84250 62.5575 -1 -6.84250 62.5575 TC 35 -6.83562 62.5644 2 5 259
1948349S06069 1949 93 SI MM NOT_NAMED 1948-12-18 00:00:00 TS -6.89500 62.3050 main 1520 1501 O________OP___ jtwc_sh SH041949 -6.90000 62.3000 -1 -6.90000 62.3000 TC 35 -6.88499 62.3150 2 5 258
1948349S06069 1949 93 SI MM NOT_NAMED 1948-12-18 03:00:00 TS -6.94728 62.0527 main 1501 1466 P________PP___ SH041949 -6.94999 62.0500 -1 -6.94999 62.0500 TC 35 -6.94186 62.0581 2 5 258
1948349S06069 1949 93 SI MM NOT_NAMED 1948-12-18 06:00:00 TS -7.00000 61.8000 main 1466 1447 O________OO___ jtwc_sh SH041949 -7.00000 61.8000 -1 -7.00000 61.8000 TC 35 -7.00000 61.8000 2 5 258
1948349S06069 1949 93 SI MM NOT_NAMED 1948-12-18 09:00:00 TS -7.05133 61.5500 main 1441 1412 P________PP___ SH041949 -7.04999 61.5500 -1 -7.04999 61.5500 TC 35 -7.05402 61.5500 2 5 258
1948349S06069 1949 93 SI MM NOT_NAMED 1948-12-18 12:00:00 TS -7.10248 61.3000 main 1412 1387 O________OP___ jtwc_sh SH041949 -7.10000 61.3000 -1 -7.10000 61.3000 TC 35 -7.10745 61.3000 2 5 258
1948349S06069 1949 93 SI MM NOT_NAMED 1948-12-18 15:00:00 TS -7.15737 61.0500 main 1387 1358 P________PP___ SH041949 -7.15749 61.0500 -1 -7.15749 61.0500 TC 35 -7.15715 61.0500 2 5 259
1948349S06069 1949 93 SI MM NOT_NAMED 1948-12-18 18:00:00 TS -7.20000 60.8000 main 1358 1339 O________OO___ jtwc_sh SH041949 -7.20000 60.8000 -1 -7.20000 60.8000 TC 35 -7.20000 60.8000 2 5 264
1948349S06069 1949 93 SI MM NOT_NAMED 1948-12-18 21:00:00 TS -7.20934 60.5527 main 1339 1311 P________PP___ SH041949 -7.19999 60.5500 -1 -7.19999 60.5500 TC 35 -7.22805 60.5581 2 5 268
1948349S06069 1949 93 SI MM NOT_NAMED 1948-12-19 00:00:00 TS -7.21663 60.3050 main 1311 1292 O________OP___ jtwc_sh SH041949 -7.20000 60.3000 -1 -7.20000 60.3000 TC 35 -7.24989 60.3149 2 5 265
1948349S06069 1949 93 SI MM NOT_NAMED 1948-12-19 03:00:00 TS -7.25225 60.0598 main 1286 1261 P________PP___ SH041949 -7.24247 60.0575 -1 -7.24247 60.0575 TC 35 -7.27179 60.0643 2 5 249
1948349S06069 1949 93 SI MM NOT_NAMED 1948-12-19 06:00:00 TS -7.39231 59.8538 reunion main 1261 1236 O____O___OO___ jtwc_sh SH041949 -7.30000 59.8000 -1 -8.50000 60.5000 99 9.90000 -7.30000 59.8000 TC 35 -7.30000 59.8000 2 5 237
1948349S06069 1949 93 SI MM NOT_NAMED 1948-12-19 09:00:00 TS -7.50940 59.6666 main 1236 1212 P____P___PP___ SH041949 -7.34999 59.5075 -1 -8.48023 60.6071 99 -7.34999 59.5075 TC 35 -7.34280 59.5144 2 4 238
1948349S06069 1949 93 SI MM NOT_NAMED 1948-12-19 12:00:00 TS -7.61094 59.5034 main 1212 1197 O____P___OP___ jtwc_sh SH041949 -7.40000 59.2000 -1 -8.46471 60.6969 99 -7.40000 59.2000 TC 35 -7.39248 59.2150 2 4 237
1948349S06069 1949 93 SI MM NOT_NAMED 1948-12-19 15:00:00 TS -7.70090 59.3650 main 1197 1178 P____P___PP___ SH041949 -7.44998 58.9000 -1 -8.45773 60.7520 99 -7.44998 58.9000 TC 35 -7.44591 58.9081 2 4 250
1948349S06069 1949 93 SI MM NOT_NAMED 1948-12-19 18:00:00 TS -7.74089 59.1388 main 1168 1144 O____P___OO___ jtwc_sh SH041949 -7.50000 58.6000 -1 -8.46358 60.7550 99 -7.50000 58.6000 TC 35 -7.50000 58.6000 2 5 260
1948349S06069 1949 93 SI MM NOT_NAMED 1948-12-19 21:00:00 TS -7.78001 58.9032 main 1144 1125 P____P___PP___ SH041949 -7.54998 58.3000 -1 -8.48653 60.6888 99 -7.54998 58.3000 TC 35 -7.53356 58.3242 2 5 260
1948349S06069 1949 93 SI MM NOT_NAMED 1948-12-20 00:00:00 TS -7.82513 58.6451 main 1115 1091 O____P___OP___ jtwc_sh SH041949 -7.60000 58.0000 -1 -8.53082 60.5359 99 -7.60000 58.0000 TC 35 -7.56970 58.0447 2 5 260
1948349S06069 1949 93 SI MM NOT_NAMED 1948-12-20 03:00:00 TS -7.87288 58.3629 main 1091 1054 P____P___PP___ SH041949 -7.63494 57.7149 -1 -8.60062 60.2788 99 -7.63494 57.7149 TC 35 -7.62101 57.7429 2 6 259
1948349S06069 1949 93 SI MM NOT_NAMED 1948-12-20 06:00:00 TS -7.95000 58.0250 reunion main 1054 1005 O____O___OO___ jtwc_sh SH041949 -7.70000 57.4000 -1 -8.70000 59.9000 99 9.90000 -7.70000 57.4000 TC 35 -7.70000 57.4000 2 8 254
1948349S06069 1949 93 SI MM NOT_NAMED 1948-12-20 09:00:00 TS -8.08164 57.6096 main 1005 962 P____P___PP___ SH041949 -7.83495 57.0300 -1 -8.83124 59.3890 99 -7.83495 57.0300 TC 35 -7.82540 56.9892 2 9 252
1948349S06069 1949 93 SI MM NOT_NAMED 1948-12-20 12:00:00 TS -8.24192 57.1255 main 953 895 O____P___OP___ jtwc_sh SH041949 -8.00000 56.6000 -1 -8.99005 58.7645 99 -8.00000 56.6000 TC 35 -7.97761 56.5376 2 11 252
1948349S06069 1949 93 SI MM NOT_NAMED 1948-12-20 15:00:00 TS -8.40665 56.5800 main 895 827 P____P___PP___ SH041949 -8.15754 56.1000 -1 -9.17050 58.0525 99 -8.15754 56.1000 TC 35 -8.14100 56.0673 2 11 253
1948349S06069 1949 93 SI MM NOT_NAMED 1948-12-20 18:00:00 TS -8.56669 56.0198 main 827 774 O____P___OO___ jtwc_sh SH041949 -8.30000 55.6000 -1 -9.36678 57.2792 99 -8.30000 55.6000 TC 35 -8.30000 55.6000 2 11 255
1948349S06069 1949 93 SI MM NOT_NAMED 1948-12-20 21:00:00 TS -8.69813 55.5139 main 774 721 P____P___PP___ SH041949 -8.39989 55.1924 -1 -9.57320 56.4709 99 -8.39989 55.1924 TC 35 -8.41955 55.1999 2 10 255
1948349S06069 1949 93 SI MM NOT_NAMED 1948-12-21 00:00:00 TS -8.82965 55.0140 main 721 662 O____P___OP___ jtwc_sh SH041949 -8.50000 54.8000 -1 -9.78429 55.6539 99 -8.50000 54.8000 TC 35 -8.53431 54.8019 2 10 254
1948349S06069 1949 93 SI MM NOT_NAMED 1948-12-21 03:00:00 TS -8.98040 54.4982 main 662 611 P____P___PP___ SH041949 -8.63488 54.3799 -1 -9.99487 54.8549 99 -8.63488 54.3799 TC 35 -8.65695 54.3780 2 11 253
1948349S06069 1949 93 SI MM NOT_NAMED 1948-12-21 06:00:00 TS -9.15000 53.9500 reunion main 611 544 O____O___OO___ jtwc_sh SH041949 -8.80000 53.9000 -1 -10.2000 54.1000 99 9.90000 -8.80000 53.9000 TC 35 -8.80000 53.9000 2 12 253
1948349S06069 1949 93 SI MM NOT_NAMED 1948-12-21 09:00:00 TS -9.33297 53.3641 main 544 479 P____P___PP___ SH041949 -8.99247 53.3300 -1 -10.3765 53.4641 99 -8.99247 53.3300 TC 35 -8.97042 53.3324 2 13 252
1948349S06069 1949 93 SI MM NOT_NAMED 1948-12-21 12:00:00 TS -9.52846 52.7416 main 470 406 O____P___OP___ jtwc_sh SH041949 -9.20000 52.7000 -1 -10.5512 52.8565 99 -9.20000 52.7000 TC 35 -9.16263 52.7098 2 13 253
1948349S06069 1949 93 SI MM NOT_NAMED 1948-12-21 15:00:00 TS -9.72078 52.1085 main 406 344 P____P___PP___ SH041949 -9.39246 52.0499 -1 -10.7247 52.2769 99 -9.39246 52.0499 TC 35 -9.37348 52.0573 2 13 252
1948349S06069 1949 93 SI MM NOT_NAMED 1948-12-21 18:00:00 TS -9.92446 51.4813 main 344 284 O____P___OO___ jtwc_sh SH041949 -9.60000 51.4000 -1 -10.8979 51.7253 99 -9.60000 51.4000 TC 35 -9.60000 51.4000 2 13 250
1948349S06069 1949 93 SI MM NOT_NAMED 1948-12-21 21:00:00 TS -10.1520 50.8801 main 275 219 P____P___PP___ SH041949 -9.84231 50.7999 -1 -11.0713 51.2019 99 -9.84231 50.7999 TC 35 -9.85213 50.7186 2 13 248
1948349S06069 1949 93 SI MM NOT_NAMED 1948-12-22 00:00:00 TS -10.3903 50.2880 main 219 173 O____P___OP___ jtwc_sh SH041949 -10.1000 50.2000 -1 -11.2456 50.7064 99 -10.1000 50.2000 TC 35 -10.1155 50.0457 2 13 248
1948349S06069 1949 93 SI MM NOT_NAMED 1948-12-22 03:00:00 TS -10.6307 49.6723 main 173 145 P____P___PP___ SH041949 -10.3651 49.5126 -1 -11.4217 50.2391 99 -10.3651 49.5126 TC 35 -10.3710 49.4248 2 12 248
1948349S06069 1949 93 SI MM NOT_NAMED 1948-12-22 06:00:00 TS -10.8500 49.1250 reunion main 146 127 O____O___OO___ jtwc_sh SH041949 -10.6000 48.9000 -1 -11.6000 49.8000 99 9.90000 -10.6000 48.9000 TC 35 -10.6000 48.9000 2 10 248
1948349S06069 1949 93 SI MM NOT_NAMED 1948-12-22 09:00:00 TS -11.0218 48.7057 main 134 129 P____P___PP___ SH041949 -10.7648 48.4824 -1 -11.7917 49.3422 99 -10.7648 48.4824 TC 35 -10.7658 48.5157 2 8 246
1948349S06069 1949 93 SI MM NOT_NAMED 1948-12-22 12:00:00 TS -11.1734 48.3852 main 133 133 O____P___OP___ jtwc_sh SH041949 -10.9000 48.2000 -1 -11.9870 48.9115 99 -10.9000 48.2000 TC 35 -10.9066 48.2293 2 7 242
1948349S06069 1949 93 SI MM NOT_NAMED 1948-12-22 15:00:00 TS -11.3244 48.1207 main 148 140 P____P___PP___ SH041949 -11.0349 47.9849 -1 -12.1835 48.5096 99 -11.0349 47.9849 TC 35 -11.0442 48.0033 2 6 237
1948349S06069 1949 93 SI MM NOT_NAMED 1948-12-22 18:00:00 TS -11.4947 47.8846 main 148 148 O____P___OO___ jtwc_sh SH041949 -11.2000 47.8000 -1 -12.3788 48.1384 99 -11.2000 47.8000 TC 35 -11.2000 47.8000 2 6 232
1948349S06069 1949 93 SI MM NOT_NAMED 1948-12-22 21:00:00 TS -11.7188 47.6101 main 158 152 P____P___PP___ SH041949 -11.4425 47.5500 -1 -12.5706 47.7999 99 -11.4425 47.5500 TC 35 -11.4197 47.5404 2 7 229
1948349S06069 1949 93 SI MM NOT_NAMED 1948-12-23 00:00:00 TS -11.9534 47.3484 main 172 172 O____P___OP___ jtwc_sh SH041949 -11.7000 47.3000 -1 -12.7563 47.4960 99 -11.7000 47.3000 TC 35 -11.6575 47.2977 2 7 227
1948349S06069 1949 93 SI MM NOT_NAMED 1948-12-23 03:00:00 TS -12.1675 47.1162 main 184 181 P____P___PP___ SH041949 -11.9225 47.0775 -1 -12.9336 47.2287 99 -11.9225 47.0775 TC 35 -11.8916 47.0811 2 6 226
1948349S06069 1949 93 SI MM NOT_NAMED 1948-12-23 06:00:00 TS -12.3500 46.9250 reunion main 188 179 O____O___OO___ jtwc_sh SH041949 -12.1000 46.9000 -1 -13.1000 47.0000 99 9.90000 -12.1000 46.9000 TC 35 -12.1000 46.9000 2 5 226
1948349S06069 1949 93 SI MM NOT_NAMED 1948-12-23 09:00:00 TS -12.4785 46.7812 main 179 179 P____P___PP___ SH041949 -12.2075 46.7849 -1 -13.2495 46.7950 99 -12.2075 46.7849 TC 35 -12.2496 46.7598 2 3 226
1948349S06069 1949 93 SI MM NOT_NAMED 1948-12-23 12:00:00 TS -12.5903 46.6714 main 179 179 O____P___OP___ jtwc_sh SH041949 -12.3000 46.7000 -1 -13.3888 46.6309 99 -12.3000 46.7000 TC 35 -12.3724 46.6548 2 3 220
1948349S06069 1949 93 SI MM NOT_NAMED 1948-12-23 15:00:00 TS -12.7222 46.5687 main 179 176 P____P___PP___ SH041949 -12.4425 46.6000 -1 -13.5197 46.5024 99 -12.4425 46.6000 TC 35 -12.4840 46.5723 2 3 215
1948349S06069 1949 93 SI MM NOT_NAMED 1948-12-23 18:00:00 TS -12.8609 46.4760 main 176 176 O____P___OO___ jtwc_sh SH041949 -12.6000 46.5000 -1 -13.6437 46.4039 99 -12.6000 46.5000 TC 35 -12.6000 46.5000 2 3 213
1948349S06069 1949 93 SI MM NOT_NAMED 1948-12-23 21:00:00 TS -13.0012 46.3822 main 180 180 P____P___PP___ SH041949 -12.7500 46.3925 -1 -13.7622 46.3300 99 -12.7500 46.3925 TC 35 -12.7428 46.4137 2 3 211
1948349S06069 1949 93 SI MM NOT_NAMED 1948-12-24 00:00:00 TS -13.1423 46.3025 main 185 178 O____P___OP___ jtwc_sh SH041949 -12.9000 46.3000 -1 -13.8767 46.2750 99 -12.9000 46.3000 TC 35 -12.8925 46.3350 2 3 205
1948349S06069 1949 93 SI MM NOT_NAMED 1948-12-24 03:00:00 TS -13.2837 46.2456 main 189 186 P____P___PP___ SH041949 -13.0500 46.2425 -1 -13.9888 46.2335 99 -13.0500 46.2425 TC 35 -13.0459 46.2637 2 3 199
1948349S06069 1949 93 SI MM NOT_NAMED 1948-12-24 06:00:00 TS -13.4250 46.2000 reunion main 186 184 O____O___OO___ jtwc_sh SH041949 -13.2000 46.2000 -1 -14.1000 46.2000 99 9.90000 -13.2000 46.2000 TC 35 -13.2000 46.2000 2 3 199
1948349S06069 1949 93 SI MM NOT_NAMED 1948-12-24 09:00:00 TS -13.5678 46.1459 main 194 186 P____P___PP___ SH041949 -13.3500 46.1500 -1 -14.2133 46.1451 99 -13.3500 46.1500 TC 35 -13.3581 46.1387 2 3 199
1948349S06069 1949 93 SI MM NOT_NAMED 1948-12-24 12:00:00 TS -13.7097 46.0969 main 186 178 O____P___OP___ jtwc_sh SH041949 -13.5000 46.1000 -1 -14.3240 46.1026 99 -13.5000 46.1000 TC 35 -13.5150 46.0850 2 3 199
1948349S06069 1949 93 SI MM NOT_NAMED 1948-12-24 15:00:00 TS -13.8532 46.0486 main 178 169 P____P___PP___ SH041949 -13.6575 46.0425 -1 -14.4333 46.0706 99 -13.6575 46.0425 TC 35 -13.6644 46.0387 2 3 197
1948349S06069 1949 93 SI MM NOT_NAMED 1948-12-24 18:00:00 TS -13.9856 46.0118 main 169 159 O____P___OO___ jtwc_sh SH041949 -13.8000 46.0000 -1 -14.5424 46.0472 99 -13.8000 46.0000 TC 35 -13.8000 46.0000 2 2 190
1948349S06069 1949 93 SI MM NOT_NAMED 1948-12-24 21:00:00 TS -14.0934 45.9995 main 159 149 P____P___PP___ SH041949 -13.9075 46.0000 -1 -14.6524 46.0304 99 -13.9075 46.0000 TC 35 -13.9062 45.9678 2 2 181
1948349S06069 1949 93 SI MM NOT_NAMED 1948-12-25 00:00:00 TS -14.1912 45.9902 main 149 139 O____P___OP___ jtwc_sh SH041949 -14.0000 46.0000 -1 -14.7646 46.0183 99 -14.0000 46.0000 TC 35 -14.0000 45.9424 2 2 193
1948349S06069 1949 93 SI MM NOT_NAMED 1948-12-25 03:00:00 TS -14.2897 45.9574 main 139 134 P____P___PP___ SH041949 -14.0925 45.9500 -1 -14.8801 46.0088 99 -14.0925 45.9500 TC 35 -14.0937 45.9209 2 2 199
1948349S06069 1949 93 SI MM NOT_NAMED 1948-12-25 06:00:00 TS -14.4000 45.9250 reunion main 134 125 O____O___OO___ jtwc_sh SH041949 -14.2000 45.9000 -1 -15.0000 46.0000 99 9.90000 -14.2000 45.9000 TC 35 -14.2000 45.9000 2 3 190
1948349S06069 1949 93 SI MM NOT_NAMED 1948-12-25 09:00:00 TS -14.5392 45.9130 main 125 108 P____P___PP___ SH041949 -14.3425 45.9000 -1 -15.1320 45.9809 99 -14.3425 45.9000 TC 35 -14.3397 45.8710 2 3 183
1948349S06069 1949 93 SI MM NOT_NAMED 1948-12-25 12:00:00 TS -14.6903 45.9016 main 108 100 O____P___OP___ jtwc_sh SH041949 -14.5000 45.9000 -1 -15.2687 45.9637 99 -14.5000 45.9000 TC 35 -14.4925 45.8425 2 3 189
1948349S06069 1949 93 SI MM NOT_NAMED 1948-12-25 15:00:00 TS -14.8394 45.8666 main 100 92 P____P___PP___ SH041949 -14.6500 45.8500 -1 -15.4086 45.9484 99 -14.6500 45.8500 TC 35 -14.6491 45.8178 2 3 192
1948349S06069 1949 93 SI MM NOT_NAMED 1948-12-25 18:00:00 TS -14.9875 45.8338 main 92 81 O____P___OO___ jtwc_sh SH041949 -14.8000 45.8000 -1 -15.5500 45.9350 99 -14.8000 45.8000 TC 35 -14.8000 45.8000 2 3 187
1948349S06069 1949 93 SI MM NOT_NAMED 1948-12-25 21:00:00 TS -15.1361 45.8249 main 81 59 P____P___PP___ SH041949 -14.9575 45.7925 -1 -15.6914 45.9234 99 -14.9575 45.7925 TC 35 -14.9381 45.7912 2 3 0
1948349S06069 1949 93 SI MM NOT_NAMED 1948-12-26 00:00:00 TS -15.3169 45.8327 main 59 39 O____P___OP___ jtwc_sh SH041949 -15.1000 45.8000 -1 -15.8312 45.9138 99 -15.1000 45.8000 TC 35 -15.0650 45.7900 2 4 0
1948349S06069 1949 93 SI MM NOT_NAMED 1948-12-26 03:00:00 TS -15.5081 45.8421 main 39 15 P____P___PP___ SH041949 -15.2100 45.8025 -1 -15.9680 45.9059 99 -15.2100 45.8025 TC 35 -15.1844 45.7937 2 4 178
1948349S06069 1949 93 SI MM NOT_NAMED 1948-12-26 06:00:00 TS -15.7571 45.8571 reunion main 10 0 O____O___OO___ jtwc_sh SH041949 -15.3000 45.8000 -1 -16.1000 45.9000 99 9.90000 -15.3000 45.8000 TC 35 -15.3000 45.8000 2 7 176
1948349S06069 1949 93 SI MM NOT_NAMED 1948-12-26 09:00:00 NR -16.2262 45.8959 main 0 0 _____P________ SH041949 -1 -16.2262 45.8959 99 TC 2 6 177
1948349S06069 1949 93 SI MM NOT_NAMED 1948-12-26 12:00:00 NR -16.3469 45.8934 main 0 0 _____P________ -1 -16.3469 45.8934 99 2 2 184
1948349S06069 1949 93 SI MM NOT_NAMED 1948-12-26 15:00:00 NR -16.4629 45.8924 main 0 0 _____P________ -1 -16.4629 45.8924 99 2 2 0
1948349S06069 1949 93 SI MM NOT_NAMED 1948-12-26 18:00:00 NR -16.5750 45.8925 main 0 0 _____P________ -1 -16.5750 45.8925 99 2 0
1948349S06069 1949 93 SI MM NOT_NAMED 1948-12-26 21:00:00 NR -16.6840 45.8935 main 0 0 _____P________ -1 -16.6840 45.8935 99 2 174
1948349S06069 1949 93 SI MM NOT_NAMED 1948-12-27 00:00:00 NR -16.7906 45.8953 main 0 0 _____P________ -1 -16.7906 45.8953 99 2 174
1948349S06069 1949 93 SI MM NOT_NAMED 1948-12-27 03:00:00 NR -16.8957 45.8975 main 0 0 _____P________ -1 -16.8957 45.8975 99 2 0
1948349S06069 1949 93 SI MM NOT_NAMED 1948-12-27 06:00:00 NR -17.0000 45.9000 reunion main 0 _____O________ -1 -17.0000 45.9000 99 9.90000 2 175

IBTrACS Databaseについて

本データベースは、米国NOAAが公開する1842年以降の世界の熱帯低気圧のベストトラックデータアーカイブInternational Best Track Archive for Climate Stewardship (IBTrACS)を、ウェブで閲覧しやすい形式に変換したものです。

最終更新日:2021-11-26